createdAt,value
2019-02-20T00:00:23.279Z,5.23
2019-02-20T00:02:51.857Z,5.17
2019-02-20T00:05:20.432Z,5.63
2019-02-20T00:07:49.019Z,5.83
2019-02-20T00:10:17.600Z,5.72
2019-02-20T00:12:46.181Z,5.30
2019-02-20T00:15:14.763Z,5.43
2019-02-20T00:17:43.379Z,5.47
2019-02-20T00:20:12.767Z,6.00
2019-02-20T00:22:41.355Z,5.17
2019-02-20T00:25:11.040Z,4.85
2019-02-20T00:27:39.623Z,4.67
2019-02-20T00:30:10.721Z,5.00
2019-02-20T00:32:39.292Z,5.10
2019-02-20T00:35:08.377Z,5.37
2019-02-20T00:37:36.996Z,4.67
2019-02-20T00:40:10.700Z,4.73
2019-02-20T00:42:39.281Z,5.27
2019-02-20T00:45:30.349Z,5.12
2019-02-20T00:48:09.291Z,5.70
2019-02-20T00:50:39.442Z,5.50
2019-02-20T00:53:13.424Z,5.97
2019-02-20T00:55:42.007Z,5.67
2019-02-20T00:58:11.513Z,5.90
2019-02-20T01:00:40.093Z,5.47
2019-02-20T01:03:09.538Z,5.43
2019-02-20T01:05:38.268Z,5.37
2019-02-20T01:08:06.915Z,5.80
2019-02-20T01:10:35.715Z,5.60
2019-02-20T01:13:04.458Z,5.90
2019-02-20T01:15:33.103Z,5.93
2019-02-20T01:18:01.691Z,6.00
2019-02-20T01:20:30.323Z,5.90
2019-02-20T01:23:00.121Z,5.90
2019-02-20T01:25:29.186Z,6.03
2019-02-20T01:27:57.767Z,5.70
2019-02-20T01:30:26.347Z,6.43
2019-02-20T01:32:54.935Z,5.53
2019-02-20T01:35:23.520Z,4.90
2019-02-20T01:37:52.095Z,5.20
2019-02-20T01:40:20.719Z,5.22
2019-02-20T01:42:49.297Z,4.00
2019-02-20T01:45:17.920Z,4.50
2019-02-20T01:47:46.537Z,4.57
2019-02-20T01:50:15.163Z,4.87
2019-02-20T01:52:43.747Z,4.47
2019-02-20T01:55:13.140Z,4.47
2019-02-20T01:57:41.717Z,4.27
2019-02-20T02:00:12.649Z,4.13
2019-02-20T02:02:41.230Z,4.83
2019-02-20T02:05:15.283Z,4.15
2019-02-20T02:07:41.184Z,4.53
2019-02-20T02:10:10.403Z,4.03
2019-02-20T02:12:38.982Z,4.20
2019-02-20T02:15:09.313Z,3.70
2019-02-20T02:17:37.888Z,3.53
2019-02-20T02:20:08.767Z,4.33
2019-02-20T02:22:37.384Z,4.00
2019-02-20T02:25:06.360Z,4.17
2019-02-20T02:27:34.940Z,4.60
2019-02-20T02:30:04.516Z,4.13
2019-02-20T02:32:33.099Z,3.73
2019-02-20T02:35:01.711Z,4.17
2019-02-20T02:37:30.288Z,3.80
2019-02-20T02:39:58.863Z,4.50
2019-02-20T02:42:27.500Z,4.70
2019-02-20T02:44:56.174Z,4.77
2019-02-20T02:47:24.751Z,4.53
2019-02-20T02:49:53.330Z,4.20
2019-02-20T02:52:22.077Z,4.55
2019-02-20T02:54:50.692Z,4.23
2019-02-20T02:57:19.268Z,4.60
2019-02-20T02:59:47.918Z,4.43
2019-02-20T03:02:16.505Z,4.60
2019-02-20T03:04:45.107Z,4.27
2019-02-20T03:07:13.687Z,4.45
2019-02-20T03:09:42.285Z,4.33
2019-02-20T03:12:11.069Z,4.17
2019-02-20T03:14:39.666Z,4.10
2019-02-20T03:17:08.471Z,4.20
2019-02-20T03:19:37.050Z,4.03
2019-02-20T03:22:05.631Z,3.77
2019-02-20T03:24:34.214Z,4.20
2019-02-20T03:27:02.830Z,4.47
2019-02-20T03:29:31.411Z,5.00
2019-02-20T03:31:59.997Z,4.93
2019-02-20T03:34:28.595Z,4.63
2019-02-20T03:36:57.162Z,4.57
2019-02-20T03:39:25.735Z,5.13
2019-02-20T03:41:54.312Z,4.40
2019-02-20T03:44:22.894Z,4.20
2019-02-20T03:46:51.507Z,4.47
2019-02-20T03:49:20.173Z,3.93
2019-02-20T03:51:48.750Z,3.87
2019-02-20T03:54:17.804Z,4.43
2019-02-20T03:56:46.383Z,4.40
2019-02-20T03:59:14.991Z,4.17
2019-02-20T04:01:43.616Z,4.20
2019-02-20T04:04:12.200Z,4.47
2019-02-20T04:06:40.833Z,4.63
2019-02-20T04:09:10.468Z,4.50
2019-02-20T04:11:39.036Z,4.63
2019-02-20T04:14:08.365Z,5.30
2019-02-20T04:16:36.950Z,4.97
2019-02-20T04:19:05.542Z,5.83
2019-02-20T04:21:34.122Z,4.50
2019-02-20T04:24:03.126Z,4.80
2019-02-20T04:26:31.880Z,5.03
2019-02-20T04:29:00.512Z,4.10
2019-02-20T04:31:29.080Z,4.67
2019-02-20T04:33:57.664Z,4.57
2019-02-20T04:36:26.247Z,4.10
2019-02-20T04:38:54.822Z,4.37
2019-02-20T04:41:23.424Z,4.40
2019-02-20T04:43:52.054Z,4.13
2019-02-20T04:46:20.662Z,4.20
2019-02-20T04:48:49.239Z,4.27
2019-02-20T04:51:17.865Z,4.53
2019-02-20T04:53:46.486Z,4.57
2019-02-20T04:56:15.167Z,4.08
2019-02-20T04:58:43.951Z,3.93
2019-02-20T05:01:12.531Z,3.92
2019-02-20T05:03:41.113Z,4.07
2019-02-20T05:06:10.233Z,3.93
2019-02-20T05:08:38.811Z,4.20
2019-02-20T05:11:07.715Z,3.43
2019-02-20T05:13:36.297Z,3.90
2019-02-20T05:16:04.895Z,4.27
2019-02-20T05:18:33.476Z,4.35
2019-02-20T05:21:02.125Z,4.47
2019-02-20T05:23:30.704Z,4.30
2019-02-20T05:25:59.326Z,3.83
2019-02-20T05:28:27.908Z,4.10
2019-02-20T05:30:56.530Z,4.00
2019-02-20T05:33:25.111Z,3.80
2019-02-20T05:35:53.710Z,3.97
2019-02-20T05:38:22.274Z,3.60
2019-02-20T05:40:50.851Z,3.60
2019-02-20T05:43:19.437Z,3.83
2019-02-20T05:45:48.008Z,3.60
2019-02-20T05:48:16.609Z,4.67
2019-02-20T05:50:45.187Z,3.83
2019-02-20T05:53:13.833Z,4.13
2019-02-20T05:55:42.539Z,4.20
2019-02-20T05:58:11.532Z,4.45
2019-02-20T06:00:40.121Z,3.97
2019-02-20T06:03:09.024Z,4.07
2019-02-20T06:05:37.605Z,4.15
2019-02-20T06:08:06.261Z,4.23
2019-02-20T06:10:34.838Z,4.30
2019-02-20T06:13:03.430Z,4.07
2019-02-20T06:15:32.033Z,4.27
2019-02-20T06:18:00.617Z,4.43
2019-02-20T06:20:29.200Z,3.97
2019-02-20T06:22:57.776Z,4.20
2019-02-20T06:25:26.366Z,3.50
2019-02-20T06:27:54.944Z,3.83
2019-02-20T06:30:23.528Z,4.77
2019-02-20T06:32:52.157Z,3.73
2019-02-20T06:35:20.735Z,3.10
2019-02-20T06:37:49.316Z,4.70
2019-02-20T06:40:17.900Z,3.02
2019-02-20T06:42:46.561Z,3.93
2019-02-20T06:45:15.140Z,4.00
2019-02-20T06:47:43.722Z,4.00
2019-02-20T06:50:13.255Z,4.05
2019-02-20T06:52:41.921Z,4.57
2019-02-20T06:55:12.422Z,4.35
2019-02-20T06:57:40.991Z,3.83
2019-02-20T07:00:13.066Z,3.67
2019-02-20T07:02:41.684Z,3.80
2019-02-20T07:05:34.492Z,4.45
2019-02-20T07:08:41.471Z,3.57
2019-02-20T07:11:32.389Z,3.95
2019-02-20T07:14:15.903Z,3.83
2019-02-20T07:17:02.439Z,3.80
2019-02-20T07:19:46.300Z,3.60
2019-02-20T07:22:29.899Z,3.50
2019-02-20T07:25:03.335Z,3.67
2019-02-20T07:27:46.935Z,3.60
2019-02-20T07:30:15.528Z,3.20
2019-02-20T07:32:44.094Z,3.23
2019-02-20T07:35:12.778Z,3.65
2019-02-20T07:37:41.365Z,3.83
2019-02-20T07:40:10.266Z,3.70
2019-02-20T07:42:38.852Z,4.43
2019-02-20T07:45:09.285Z,3.77
2019-02-20T07:47:37.853Z,3.90
2019-02-20T07:50:09.339Z,4.10
2019-02-20T07:52:37.919Z,4.00
2019-02-20T07:55:13.345Z,4.63
2019-02-20T07:57:37.634Z,4.50
2019-02-20T08:00:11.744Z,4.27
2019-02-20T08:02:40.326Z,4.70
2019-02-20T08:05:09.122Z,4.62
2019-02-20T08:07:37.700Z,3.70
2019-02-20T08:10:09.404Z,4.33
2019-02-20T08:12:37.984Z,4.60
2019-02-20T08:15:09.073Z,4.50
2019-02-20T08:17:37.657Z,5.33
2019-02-20T08:20:08.443Z,5.60
2019-02-20T08:22:37.021Z,6.07
2019-02-20T08:25:06.612Z,5.90
2019-02-20T08:27:35.205Z,6.20
2019-02-20T08:30:04.290Z,6.00
2019-02-20T08:32:32.903Z,5.97
2019-02-20T08:35:01.485Z,6.83
2019-02-20T08:37:30.110Z,7.37
2019-02-20T08:39:58.694Z,6.23
2019-02-20T08:42:27.278Z,7.03
2019-02-20T08:44:55.917Z,5.30
2019-02-20T08:47:24.498Z,4.60
2019-02-20T08:49:54.433Z,4.30
2019-02-20T08:52:23.134Z,3.77
2019-02-20T08:54:51.715Z,3.33
2019-02-20T08:57:20.298Z,3.30
2019-02-20T08:59:49.081Z,3.30
2019-02-20T09:02:17.655Z,3.80
2019-02-20T09:04:46.244Z,4.30
2019-02-20T09:07:14.818Z,4.10
2019-02-20T09:09:43.507Z,4.47
2019-02-20T09:12:12.087Z,4.30
2019-02-20T09:14:40.663Z,3.70
2019-02-20T09:17:10.358Z,4.00
2019-02-20T09:19:38.938Z,4.65
2019-02-20T09:22:08.985Z,4.18
2019-02-20T09:24:37.576Z,4.50
2019-02-20T09:27:06.151Z,4.90
2019-02-20T09:29:34.733Z,5.17
2019-02-20T09:32:03.324Z,5.67
2019-02-20T09:34:31.905Z,4.93
2019-02-20T09:37:00.492Z,5.83
2019-02-20T09:39:36.649Z,5.80
2019-02-20T09:42:06.576Z,6.40
2019-02-20T09:44:38.356Z,5.90
2019-02-20T09:47:07.204Z,6.58
2019-02-20T09:49:35.851Z,5.23
2019-02-20T09:52:04.431Z,5.33
2019-02-20T09:54:33.177Z,4.27
2019-02-20T09:57:01.818Z,4.83
2019-02-20T09:59:30.779Z,4.30
2019-02-20T11:00:24.881Z,8.40
2019-02-20T11:31:02.688Z,8.37
2019-02-20T11:33:31.256Z,8.07
2019-02-20T11:35:59.898Z,7.47
2019-02-20T11:38:28.481Z,7.90
2019-02-20T11:40:57.068Z,7.03
2019-02-20T11:43:25.665Z,6.93
2019-02-20T11:45:54.374Z,6.57
2019-02-20T11:48:22.959Z,6.55
2019-02-20T11:50:51.607Z,7.50
2019-02-20T11:53:20.197Z,7.13
2019-02-20T11:55:48.789Z,7.53
2019-02-20T11:58:17.372Z,6.83
2019-02-20T12:00:45.961Z,7.37
2019-02-20T12:03:14.585Z,7.40
2019-02-20T12:05:43.385Z,7.30
2019-02-20T12:08:11.999Z,7.03
2019-02-20T12:10:40.682Z,5.67
2019-02-20T12:13:09.440Z,6.50
2019-02-20T12:15:38.506Z,5.70
2019-02-20T12:18:07.978Z,6.17
2019-02-20T12:20:36.565Z,7.00
2019-02-20T12:23:05.200Z,5.87
2019-02-20T12:25:35.444Z,7.20
2019-02-20T12:28:04.030Z,6.10
2019-02-20T12:30:32.622Z,6.67
2019-02-20T12:33:01.205Z,7.33
2019-02-20T12:35:29.816Z,7.17
2019-02-20T12:37:58.406Z,6.77
2019-02-20T12:40:26.996Z,7.07
2019-02-20T12:45:24.284Z,8.78
2019-02-20T12:47:52.923Z,8.43
2019-02-20T12:50:21.526Z,7.83
2019-02-20T12:56:22.650Z,7.30
2019-02-20T13:09:40.519Z,8.10
2019-02-20T13:12:09.760Z,9.20
2019-02-20T13:14:38.385Z,9.80
2019-02-20T13:17:06.977Z,9.30
2019-02-20T13:19:35.572Z,9.57
2019-02-20T13:22:04.164Z,9.80
2019-02-20T13:24:32.817Z,10.77
2019-02-20T13:27:07.649Z,10.90
2019-02-20T13:29:31.778Z,9.87
2019-02-20T13:32:00.374Z,10.87
2019-02-20T13:34:29.002Z,10.13
2019-02-20T13:36:57.713Z,10.73
2019-02-20T13:39:26.292Z,9.35
2019-02-20T13:41:54.897Z,10.70
2019-02-20T13:44:23.648Z,10.53
2019-02-20T13:46:52.718Z,10.17
2019-02-20T13:49:21.350Z,11.30
2019-02-20T13:51:49.946Z,10.23
2019-02-20T13:54:18.529Z,9.88
2019-02-20T13:56:47.179Z,10.53
2019-02-20T13:59:15.813Z,11.07
2019-02-20T14:05:43.094Z,11.57
2019-02-20T14:08:11.964Z,11.63
2019-02-20T15:18:02.519Z,10.30
2019-02-20T15:43:31.181Z,11.20
2019-02-20T15:45:59.778Z,11.22
2019-02-20T15:48:34.084Z,11.80
2019-02-20T16:02:04.861Z,11.00
2019-02-20T16:04:33.451Z,11.83
2019-02-20T16:07:02.122Z,10.15
2019-02-20T16:09:32.263Z,11.23
2019-02-20T16:12:00.861Z,11.08
2019-02-20T16:14:29.745Z,11.00
2019-02-20T16:16:58.431Z,11.43
2019-02-20T16:19:27.031Z,10.93
2019-02-20T16:21:55.622Z,11.43
2019-02-20T16:24:24.213Z,13.23
2019-02-20T16:26:52.806Z,10.90
2019-02-20T16:29:21.404Z,11.75
2019-02-20T16:31:50.006Z,10.80
2019-02-20T16:34:18.597Z,11.73
2019-02-20T16:36:49.139Z,11.50
2019-02-20T16:39:17.560Z,11.03
2019-02-20T16:41:47.224Z,10.77
2019-02-20T16:44:15.827Z,10.77
2019-02-20T16:46:44.686Z,9.40
2019-02-20T16:49:13.486Z,8.63
2019-02-20T16:51:42.073Z,7.90
2019-02-20T16:54:10.658Z,7.40
2019-02-20T16:56:40.249Z,8.60
2019-02-20T16:59:09.309Z,8.50
2019-02-20T17:01:37.898Z,7.73
2019-02-20T17:04:07.255Z,7.77
2019-02-20T17:06:35.921Z,7.67
2019-02-20T17:09:05.719Z,8.10
2019-02-20T17:11:34.342Z,7.90
2019-02-20T17:14:02.922Z,7.57
2019-02-20T17:16:31.608Z,7.60
2019-02-20T17:19:00.570Z,7.63
2019-02-20T17:21:29.161Z,8.37
2019-02-20T17:23:57.785Z,8.10
2019-02-20T17:26:26.433Z,8.40
2019-02-20T17:28:55.223Z,7.67
2019-02-20T17:31:23.820Z,8.80
2019-02-20T17:33:52.457Z,10.53
2019-02-20T17:36:21.082Z,9.00
2019-02-20T17:38:49.739Z,8.80
2019-02-20T17:41:18.330Z,10.53
2019-02-20T17:43:47.011Z,10.43
2019-02-20T17:46:15.696Z,12.50
2019-02-20T17:48:44.293Z,11.80
2019-02-20T17:51:13.399Z,12.67
2019-02-20T17:53:41.999Z,11.63
2019-02-20T17:56:12.671Z,10.53
2019-02-20T17:58:42.660Z,11.27
2019-02-20T18:01:12.939Z,10.93
2019-02-20T18:03:41.555Z,10.73
2019-02-20T18:06:11.166Z,10.83
2019-02-20T18:08:39.757Z,9.83
2019-02-20T18:11:08.950Z,11.20
2019-02-20T18:13:37.537Z,9.30
2019-02-20T18:16:07.154Z,9.88
2019-02-20T18:18:35.745Z,10.40
2019-02-20T18:21:04.333Z,9.27
2019-02-20T18:23:32.921Z,11.10
2019-02-20T18:26:01.563Z,10.40
2019-02-20T18:28:30.144Z,11.07
2019-02-20T18:30:58.747Z,10.73
2019-02-20T18:33:27.325Z,10.63
2019-02-20T18:35:55.917Z,10.37
2019-02-20T19:45:00.474Z,6.90
2019-02-20T19:47:47.210Z,6.73
2019-02-20T19:50:36.853Z,6.70
2019-02-20T19:53:20.608Z,6.20
2019-02-20T19:55:55.103Z,6.17
2019-02-20T19:58:43.266Z,6.30
2019-02-20T20:01:34.264Z,6.22
2019-02-20T20:04:12.113Z,6.90
2019-02-20T20:06:54.090Z,8.20
2019-02-20T20:09:28.839Z,6.53
2019-02-20T20:12:33.875Z,7.20
2019-02-20T20:15:17.895Z,7.93
2019-02-20T20:18:01.920Z,7.57
2019-02-20T20:22:02.548Z,7.73
2019-02-20T20:24:46.514Z,7.10
2019-02-20T20:27:33.497Z,8.60
2019-02-20T20:30:38.447Z,8.80
2019-02-20T20:33:34.857Z,7.47
2019-02-20T20:36:18.677Z,7.53
2019-02-20T20:38:56.709Z,8.07
2019-02-20T20:41:36.385Z,7.47
2019-02-20T20:44:36.799Z,6.60
2019-02-20T20:47:11.413Z,7.20
2019-02-20T20:49:43.390Z,6.63
2019-02-20T20:52:14.094Z,6.77
2019-02-20T20:55:01.430Z,6.83
2019-02-20T20:57:51.639Z,6.30
2019-02-20T21:00:28.039Z,6.37
2019-02-20T21:02:58.321Z,6.50
2019-02-20T21:05:46.782Z,6.77
2019-02-20T21:08:20.168Z,7.10
2019-02-20T21:10:52.925Z,6.60
2019-02-20T21:13:31.919Z,7.10
2019-02-20T21:16:35.616Z,7.77
2019-02-20T21:19:21.558Z,7.17
2019-02-20T21:22:21.910Z,8.17
2019-02-20T21:25:14.401Z,8.50
2019-02-20T21:28:13.155Z,8.27
2019-02-20T21:30:52.360Z,8.10
2019-02-20T21:33:53.218Z,8.03
2019-02-20T21:36:35.890Z,8.20
2019-02-20T21:39:12.222Z,8.77
2019-02-20T21:41:42.584Z,8.73
2019-02-20T21:44:12.756Z,8.20
2019-02-20T21:47:05.668Z,9.17
2019-02-20T21:49:44.960Z,8.37
2019-02-20T21:52:44.544Z,9.13
2019-02-20T21:55:26.818Z,8.67
2019-02-20T21:58:09.176Z,8.07
2019-02-20T22:00:51.192Z,8.53
2019-02-20T22:03:24.248Z,7.70
2019-02-20T22:06:24.596Z,8.40
2019-02-20T22:09:04.188Z,8.57
2019-02-20T22:11:46.215Z,8.60
2019-02-20T22:14:25.057Z,8.30
2019-02-20T22:16:57.764Z,7.67
2019-02-20T22:19:45.882Z,8.13
2019-02-20T22:22:49.306Z,7.87
2019-02-20T22:25:28.847Z,8.13
2019-02-20T22:28:04.817Z,9.00
2019-02-20T22:30:51.864Z,7.80
2019-02-20T22:33:24.666Z,7.87
2019-02-20T22:35:57.745Z,8.20
2019-02-20T22:38:55.067Z,8.20
2019-02-20T22:41:43.442Z,7.80
2019-02-20T22:44:48.345Z,8.57
2019-02-20T22:47:45.779Z,7.70
2019-02-20T22:50:43.390Z,8.17
2019-02-20T22:53:29.768Z,8.20
2019-02-20T22:56:13.808Z,8.40
2019-02-20T22:58:53.059Z,7.60
2019-02-20T23:01:32.249Z,8.27
2019-02-20T23:04:26.283Z,8.17
2019-02-20T23:07:11.451Z,7.97
2019-02-20T23:09:52.655Z,8.33
2019-02-20T23:12:37.512Z,7.83
2019-02-20T23:15:05.815Z,7.43
2019-02-20T23:17:32.238Z,7.63
2019-02-20T23:19:58.659Z,7.87
2019-02-20T23:22:25.272Z,7.63
2019-02-20T23:24:51.866Z,7.07
2019-02-20T23:27:18.531Z,7.60
2019-02-20T23:29:44.949Z,7.90
2019-02-20T23:32:11.371Z,8.00
2019-02-20T23:34:37.843Z,7.43
2019-02-20T23:37:04.266Z,7.73
2019-02-20T23:39:30.694Z,7.83
2019-02-20T23:41:57.114Z,8.43
2019-02-20T23:44:23.681Z,7.23
2019-02-20T23:46:50.085Z,7.80
2019-02-20T23:49:16.504Z,8.53
2019-02-20T23:51:42.928Z,8.53
2019-02-20T23:54:09.344Z,8.23
2019-02-20T23:56:36.009Z,8.43
2019-02-20T23:59:02.434Z,8.70
